createdAt,value
2018-05-09T00:02:03.309Z,5.57
2018-05-09T00:04:33.679Z,4.47
2018-05-09T00:07:04.328Z,5.90
2018-05-09T00:09:34.396Z,4.07
2018-05-09T00:12:05.817Z,4.07
2018-05-09T00:14:36.171Z,4.13
2018-05-09T00:17:06.271Z,5.90
2018-05-09T00:19:36.646Z,5.80
2018-05-09T00:22:06.731Z,7.43
2018-05-09T00:24:37.225Z,4.67
2018-05-09T00:27:08.455Z,4.70
2018-05-09T00:29:39.497Z,7.07
2018-05-09T00:32:09.890Z,3.57
2018-05-09T00:34:40.048Z,5.40
2018-05-09T00:37:10.396Z,5.00
2018-05-09T00:39:40.796Z,5.90
2018-05-09T00:42:10.964Z,4.90
2018-05-09T00:44:41.085Z,6.13
2018-05-09T00:47:11.511Z,4.73
2018-05-09T00:49:41.816Z,4.93
2018-05-09T00:52:11.980Z,3.83
2018-05-09T00:54:42.059Z,4.83
2018-05-09T00:57:12.679Z,5.97
2018-05-09T00:59:42.983Z,5.00
2018-05-09T01:02:14.468Z,3.97
2018-05-09T01:04:44.856Z,5.57
2018-05-09T01:07:15.599Z,6.63
2018-05-09T01:09:46.626Z,6.60
2018-05-09T01:12:17.499Z,5.83
2018-05-09T01:14:47.977Z,4.17
2018-05-09T01:17:18.103Z,8.83
2018-05-09T01:19:48.160Z,6.60
2018-05-09T01:22:18.579Z,4.20
2018-05-09T01:24:48.751Z,4.40
2018-05-09T01:27:18.928Z,3.17
2018-05-09T01:29:49.311Z,5.47
2018-05-09T01:32:19.659Z,4.83
2018-05-09T01:34:50.527Z,3.53
2018-05-09T01:37:20.863Z,3.87
2018-05-09T01:39:50.935Z,4.83
2018-05-09T01:42:22.123Z,6.00
2018-05-09T01:44:52.161Z,5.07
2018-05-09T01:47:22.213Z,7.60
2018-05-09T01:49:54.047Z,6.73
2018-05-09T01:52:24.311Z,4.37
2018-05-09T01:54:54.391Z,5.53
2018-05-09T01:57:25.515Z,5.27
2018-05-09T01:59:55.572Z,4.00
2018-05-09T02:02:26.712Z,5.90
2018-05-09T02:04:57.672Z,4.13
2018-05-09T02:07:27.765Z,6.30
2018-05-09T02:09:58.107Z,4.67
2018-05-09T02:12:28.927Z,7.53
2018-05-09T02:14:59.944Z,8.40
2018-05-09T02:17:30.565Z,5.37
2018-05-09T02:20:00.751Z,5.23
2018-05-09T02:22:30.848Z,4.60
2018-05-09T02:25:01.760Z,4.57
2018-05-09T02:27:32.429Z,7.53
2018-05-09T02:30:02.503Z,5.10
2018-05-09T02:32:32.816Z,5.43
2018-05-09T02:35:05.099Z,7.27
2018-05-09T02:37:35.425Z,3.93
2018-05-09T02:40:05.727Z,5.80
2018-05-09T02:42:35.917Z,5.73
2018-05-09T02:45:06.263Z,6.33
2018-05-09T02:47:37.985Z,4.23
2018-05-09T02:50:08.842Z,5.17
2018-05-09T02:52:38.922Z,6.57
2018-05-09T02:55:09.016Z,6.10
2018-05-09T02:57:39.397Z,5.87
2018-05-09T03:00:11.547Z,5.10
2018-05-09T03:02:41.854Z,6.53
2018-05-09T03:05:12.136Z,4.87
2018-05-09T03:07:42.753Z,6.27
2018-05-09T03:10:13.460Z,7.83
2018-05-09T03:12:43.819Z,5.70
2018-05-09T03:15:13.867Z,4.33
2018-05-09T03:17:45.195Z,6.10
2018-05-09T03:20:15.387Z,6.33
2018-05-09T03:22:46.289Z,4.50
2018-05-09T03:25:16.647Z,6.20
2018-05-09T03:27:47.972Z,6.70
2018-05-09T03:30:18.083Z,5.77
2018-05-09T03:32:48.292Z,7.10
2018-05-09T03:35:18.939Z,5.87
2018-05-09T03:37:49.611Z,7.47
2018-05-09T03:40:19.959Z,4.43
2018-05-09T03:42:50.349Z,8.40
2018-05-09T03:45:20.652Z,5.70
2018-05-09T03:47:51.498Z,5.13
2018-05-09T03:50:22.628Z,6.43
2018-05-09T03:52:52.967Z,5.93
2018-05-09T03:55:23.015Z,4.53
2018-05-09T03:57:53.682Z,8.20
2018-05-09T04:00:27.525Z,7.23
2018-05-09T04:05:11.387Z,8.57
2018-05-09T04:09:55.472Z,3.70
2018-05-09T04:12:25.656Z,6.87
2018-05-09T04:14:56.159Z,5.50
2018-05-09T04:17:27.061Z,4.70
2018-05-09T04:19:57.419Z,4.60
2018-05-09T04:22:28.228Z,8.60
2018-05-09T04:24:59.387Z,6.43
2018-05-09T04:27:29.691Z,4.90
2018-05-09T04:30:00.016Z,6.50
2018-05-09T04:32:30.143Z,5.83
2018-05-09T04:35:00.670Z,8.10
2018-05-09T04:37:31.216Z,7.20
2018-05-09T04:40:01.357Z,5.17
2018-05-09T04:42:31.623Z,5.77
2018-05-09T04:45:02.363Z,8.47
2018-05-09T04:47:32.423Z,4.87
2018-05-09T04:50:06.339Z,6.33
2018-05-09T04:52:36.719Z,5.53
2018-05-09T04:55:08.320Z,6.83
2018-05-09T04:57:38.475Z,4.23
2018-05-09T05:00:08.783Z,7.07
2018-05-09T05:02:39.208Z,6.70
2018-05-09T05:05:09.772Z,4.13
2018-05-09T05:07:41.835Z,4.47
2018-05-09T05:10:14.055Z,6.20
2018-05-09T05:12:45.916Z,6.57
2018-05-09T05:15:16.197Z,8.40
2018-05-09T05:17:50.661Z,13.70
2018-05-09T05:20:21.162Z,9.63
2018-05-09T05:22:52.079Z,9.70
2018-05-09T05:25:27.868Z,8.23
2018-05-09T05:27:59.784Z,7.23
2018-05-09T05:30:30.629Z,4.90
2018-05-09T05:33:07.835Z,7.97
2018-05-09T05:35:38.835Z,8.03
2018-05-09T05:38:09.109Z,8.43
2018-05-09T05:40:39.600Z,9.90
2018-05-09T05:43:15.052Z,11.10
2018-05-09T05:45:46.603Z,7.73
2018-05-09T05:48:16.787Z,10.50
2018-05-09T05:50:47.332Z,8.27
2018-05-09T05:53:18.916Z,6.07
2018-05-09T05:55:49.002Z,5.57
2018-05-09T05:58:20.191Z,6.60
2018-05-09T06:01:00.679Z,9.87
2018-05-09T06:03:31.235Z,7.50
2018-05-09T06:06:02.228Z,8.53
2018-05-09T06:08:32.684Z,6.93
2018-05-09T06:11:17.211Z,8.33
2018-05-09T06:13:47.600Z,8.73
2018-05-09T06:16:18.551Z,9.57
2018-05-09T06:18:49.730Z,7.43
2018-05-09T06:21:19.778Z,6.17
2018-05-09T06:23:49.914Z,9.03
2018-05-09T06:26:24.949Z,8.57
2018-05-09T06:28:56.707Z,9.03
2018-05-09T06:31:27.589Z,10.77
2018-05-09T06:33:57.988Z,5.17
2018-05-09T06:36:30.094Z,7.57
2018-05-09T06:39:01.780Z,11.77
2018-05-09T06:41:32.612Z,7.13
2018-05-09T06:44:02.717Z,9.47
2018-05-09T06:46:32.960Z,9.00
2018-05-09T06:49:09.399Z,9.37
2018-05-09T06:51:46.223Z,11.30
2018-05-09T06:54:16.415Z,7.03
2018-05-09T06:56:47.841Z,7.80
2018-05-09T06:59:22.395Z,9.43
2018-05-09T07:01:53.103Z,12.23
2018-05-09T07:04:27.148Z,10.83
2018-05-09T07:06:58.284Z,9.17
2018-05-09T07:09:31.802Z,8.70
2018-05-09T07:12:02.863Z,8.40
2018-05-09T07:14:34.549Z,8.67
2018-05-09T07:17:04.624Z,7.73
2018-05-09T07:19:34.953Z,9.10
2018-05-09T07:22:06.139Z,5.07
2018-05-09T07:24:36.625Z,9.53
2018-05-09T07:27:06.806Z,8.63
2018-05-09T07:29:36.865Z,13.37
2018-05-09T07:32:07.394Z,10.23
2018-05-09T07:34:37.772Z,10.90
2018-05-09T07:37:09.628Z,10.60
2018-05-09T07:39:40.491Z,7.20
2018-05-09T07:42:11.829Z,8.13
2018-05-09T07:44:42.356Z,6.77
2018-05-09T07:47:12.607Z,7.97
2018-05-09T07:49:42.708Z,5.63
2018-05-09T07:52:12.929Z,7.97
2018-05-09T07:54:43.280Z,8.97
2018-05-09T07:57:14.372Z,9.07
2018-05-09T07:59:45.968Z,7.50
2018-05-09T08:02:17.187Z,7.67
2018-05-09T08:04:48.068Z,4.50
2018-05-09T08:07:18.491Z,8.10
2018-05-09T08:09:48.591Z,7.40
2018-05-09T08:12:18.798Z,5.60
2018-05-09T08:14:49.104Z,8.07
2018-05-09T08:17:19.237Z,14.00
2018-05-09T08:19:50.335Z,7.23
2018-05-09T08:22:20.417Z,7.63
2018-05-09T08:24:50.884Z,10.73
2018-05-09T08:27:21.773Z,6.23
2018-05-09T08:29:52.571Z,7.33
2018-05-09T08:32:22.623Z,11.83
2018-05-09T08:34:53.505Z,8.33
2018-05-09T08:37:23.606Z,10.40
2018-05-09T08:39:53.975Z,9.40
2018-05-09T08:42:24.131Z,9.17
2018-05-09T08:44:54.943Z,7.03
2018-05-09T08:47:25.559Z,7.33
2018-05-09T08:49:55.899Z,10.33
2018-05-09T08:52:27.425Z,11.90
2018-05-09T08:54:57.520Z,9.97
2018-05-09T08:57:28.052Z,8.80
2018-05-09T08:59:58.211Z,8.83
2018-05-09T09:02:28.375Z,8.80
2018-05-09T09:04:59.072Z,10.03
2018-05-09T09:07:30.094Z,7.53
2018-05-09T09:10:00.213Z,9.10
2018-05-09T09:12:30.912Z,10.70
2018-05-09T09:15:01.200Z,8.80
2018-05-09T09:17:32.068Z,7.57
2018-05-09T09:20:02.659Z,9.67
2018-05-09T09:22:33.492Z,6.47
2018-05-09T09:25:04.355Z,6.67
2018-05-09T09:27:35.488Z,8.30
2018-05-09T09:30:07.883Z,8.67
2018-05-09T09:32:39.275Z,8.83
2018-05-09T09:35:10.004Z,6.07
2018-05-09T09:37:40.077Z,8.63
2018-05-09T09:40:10.537Z,10.57
2018-05-09T09:42:40.961Z,10.20
2018-05-09T09:45:11.124Z,10.27
2018-05-09T09:47:41.173Z,5.37
2018-05-09T09:50:11.380Z,7.37
2018-05-09T09:52:42.851Z,7.70
2018-05-09T09:55:13.179Z,4.80
2018-05-09T09:57:43.594Z,7.77
2018-05-09T10:00:17.769Z,13.80
2018-05-09T10:02:48.160Z,6.37
2018-05-09T10:05:18.244Z,7.20
2018-05-09T10:07:49.052Z,9.83
2018-05-09T10:10:19.382Z,10.07
2018-05-09T10:12:49.463Z,10.40
2018-05-09T10:15:19.716Z,11.27
2018-05-09T10:17:50.580Z,7.83
2018-05-09T10:20:21.387Z,9.13
2018-05-09T10:22:51.420Z,8.47
2018-05-09T10:25:21.880Z,8.77
2018-05-09T10:27:52.022Z,6.77
2018-05-09T10:30:22.090Z,10.03
2018-05-09T10:32:52.983Z,9.73
2018-05-09T10:35:24.279Z,12.27
2018-05-09T10:37:55.130Z,6.70
2018-05-09T10:40:25.271Z,11.47
2018-05-09T10:42:55.311Z,8.43
2018-05-09T10:45:25.659Z,6.93
2018-05-09T10:47:55.711Z,6.47
2018-05-09T10:50:26.187Z,10.40
2018-05-09T10:52:56.240Z,7.07
2018-05-09T10:55:26.591Z,8.00
2018-05-09T10:57:56.921Z,8.20
2018-05-09T11:00:26.956Z,7.13
2018-05-09T11:02:57.417Z,10.00
2018-05-09T11:05:28.315Z,8.67
2018-05-09T11:07:58.468Z,5.07
2018-05-09T11:10:28.613Z,4.20
2018-05-09T11:12:59.044Z,12.70
2018-05-09T11:15:29.213Z,11.47
2018-05-09T11:17:59.361Z,10.17
2018-05-09T11:20:30.519Z,8.57
2018-05-09T11:23:01.400Z,20.70
2018-05-09T11:25:31.748Z,8.37
2018-05-09T11:28:01.828Z,10.93
2018-05-09T11:30:31.960Z,6.70
2018-05-09T11:33:02.004Z,8.43
2018-05-09T11:35:32.360Z,11.47
2018-05-09T11:38:03.223Z,5.47
2018-05-09T11:40:33.367Z,7.63
2018-05-09T11:43:03.423Z,10.27
2018-05-09T11:45:33.519Z,8.10
2018-05-09T11:48:03.606Z,12.63
2018-05-09T11:50:34.016Z,6.87
2018-05-09T11:53:04.091Z,7.33
2018-05-09T11:55:34.425Z,6.87
2018-05-09T11:58:04.528Z,9.67
2018-05-09T12:00:34.596Z,9.73
2018-05-09T12:03:04.983Z,11.03
2018-05-09T12:05:35.359Z,10.57
2018-05-09T12:08:06.225Z,6.07
2018-05-09T12:10:36.364Z,7.70
2018-05-09T12:13:06.440Z,10.70
2018-05-09T12:15:37.119Z,11.10
2018-05-09T12:18:08.441Z,9.20
2018-05-09T12:20:38.609Z,9.13
2018-05-09T12:23:09.569Z,10.27
2018-05-09T12:25:39.684Z,9.13
2018-05-09T12:28:11.144Z,9.67
2018-05-09T12:30:41.274Z,11.20
2018-05-09T12:33:12.380Z,7.47
2018-05-09T12:35:43.547Z,13.43
2018-05-09T12:38:13.615Z,9.97
2018-05-09T12:40:43.726Z,7.53
2018-05-09T12:43:14.094Z,6.73
2018-05-09T12:45:45.228Z,9.60
2018-05-09T12:48:16.076Z,10.03
2018-05-09T12:50:47.229Z,6.57
2018-05-09T12:53:17.341Z,9.50
2018-05-09T12:55:48.492Z,9.47
2018-05-09T12:58:18.660Z,14.43
2018-05-09T13:00:48.743Z,10.70
2018-05-09T13:03:19.188Z,9.33
2018-05-09T13:05:49.296Z,14.77
2018-05-09T13:08:19.727Z,10.83
2018-05-09T13:10:50.085Z,12.67
2018-05-09T13:13:20.249Z,7.63
2018-05-09T13:15:50.378Z,7.43
2018-05-09T13:18:20.466Z,10.50
2018-05-09T13:20:50.953Z,7.70
2018-05-09T13:23:21.047Z,11.77
2018-05-09T13:25:51.230Z,7.80
2018-05-09T13:28:21.332Z,10.43
2018-05-09T13:30:51.660Z,12.13
2018-05-09T13:33:21.739Z,11.00
2018-05-09T13:35:51.783Z,5.73
2018-05-09T13:38:23.153Z,10.10
2018-05-09T13:40:53.271Z,10.57
2018-05-09T13:43:23.361Z,8.10
2018-05-09T13:45:53.481Z,8.10
2018-05-09T13:48:23.772Z,11.60
2018-05-09T13:50:54.120Z,10.00
2018-05-09T13:53:24.244Z,10.63
2018-05-09T13:55:54.577Z,9.53
2018-05-09T13:58:24.716Z,11.77
2018-05-09T14:00:54.756Z,11.13
2018-05-09T14:03:25.180Z,8.23
2018-05-09T14:05:56.320Z,8.97
2018-05-09T14:08:26.452Z,12.63
2018-05-09T14:10:57.971Z,9.43
2018-05-09T14:13:28.483Z,8.33
2018-05-09T14:15:58.595Z,12.40
2018-05-09T14:18:29.243Z,11.30
2018-05-09T14:20:59.600Z,9.07
2018-05-09T14:23:30.438Z,6.50
2018-05-09T14:26:00.515Z,13.50
2018-05-09T14:28:31.984Z,8.97
2018-05-09T14:31:02.370Z,11.80
2018-05-09T14:33:32.760Z,9.70
2018-05-09T14:36:03.942Z,10.80
2018-05-09T14:38:34.364Z,9.77
2018-05-09T14:41:04.544Z,8.87
2018-05-09T14:43:34.915Z,10.67
2018-05-09T14:46:05.072Z,6.93
2018-05-09T14:48:35.956Z,11.57
2018-05-09T14:51:07.157Z,8.37
2018-05-09T14:53:37.537Z,9.47
2018-05-09T14:56:07.675Z,10.33
2018-05-09T14:58:38.107Z,10.30
2018-05-09T15:01:08.472Z,8.90
2018-05-09T15:03:38.624Z,9.43
2018-05-09T15:06:09.131Z,12.97
2018-05-09T15:08:39.275Z,8.20
2018-05-09T15:11:09.524Z,15.20
2018-05-09T15:13:39.872Z,9.27
2018-05-09T15:16:10.848Z,9.77
2018-05-09T15:18:40.952Z,9.83
2018-05-09T15:21:11.447Z,11.43
2018-05-09T15:23:41.544Z,9.03
2018-05-09T15:26:11.712Z,13.17
2018-05-09T15:28:42.850Z,9.13
2018-05-09T15:31:12.963Z,10.67
2018-05-09T15:33:43.041Z,10.97
2018-05-09T15:36:13.383Z,15.03
2018-05-09T15:38:43.490Z,10.20
2018-05-09T15:41:16.224Z,9.98
2018-05-09T15:43:47.355Z,13.35
2018-05-09T15:46:18.318Z,12.23
2018-05-09T15:48:52.292Z,10.75
2018-05-09T15:51:22.664Z,7.70
2018-05-09T15:53:53.511Z,6.10
2018-05-09T15:56:23.616Z,10.57
2018-05-09T15:58:53.998Z,11.67
2018-05-09T16:01:24.116Z,9.17
2018-05-09T16:03:54.596Z,10.83
2018-05-09T16:06:24.912Z,12.03
2018-05-09T16:08:55.363Z,11.27
2018-05-09T16:11:25.709Z,10.97
2018-05-09T16:13:56.075Z,8.97
2018-05-09T16:16:27.365Z,11.23
2018-05-09T16:18:57.462Z,8.03
2018-05-09T16:21:27.860Z,7.33
2018-05-09T16:23:57.939Z,11.80
2018-05-09T16:26:28.123Z,7.60
2018-05-09T16:28:59.517Z,8.47
2018-05-09T16:31:30.307Z,8.17
2018-05-09T16:34:01.182Z,9.93
2018-05-09T16:36:31.661Z,9.47
2018-05-09T16:39:02.667Z,10.67
2018-05-09T16:41:33.064Z,10.17
2018-05-09T16:44:03.396Z,6.67
2018-05-09T16:46:33.661Z,14.77
2018-05-09T16:49:04.089Z,10.87
2018-05-09T16:51:34.500Z,9.07
2018-05-09T16:54:05.032Z,8.17
2018-05-09T16:56:35.101Z,12.30
2018-05-09T16:59:05.188Z,10.97
2018-05-09T17:01:35.937Z,9.10
2018-05-09T17:04:06.031Z,7.50
2018-05-09T17:06:36.269Z,6.27
2018-05-09T17:09:08.264Z,9.33
2018-05-09T17:11:39.587Z,9.07
2018-05-09T17:14:10.056Z,7.23
2018-05-09T17:16:41.250Z,8.57
2018-05-09T17:19:11.687Z,11.13
2018-05-09T17:21:56.855Z,13.30
2018-05-09T17:24:30.000Z,11.70
2018-05-09T17:27:01.996Z,6.07
2018-05-09T17:29:33.000Z,6.97
2018-05-09T17:32:03.963Z,7.07
2018-05-09T17:34:34.929Z,9.30
2018-05-09T17:37:05.137Z,11.70
2018-05-09T17:39:36.090Z,7.13
2018-05-09T17:42:06.664Z,8.00
2018-05-09T17:44:37.739Z,11.33
2018-05-09T17:47:07.931Z,7.80
2018-05-09T17:49:38.397Z,8.33
2018-05-09T17:52:08.573Z,9.80
2018-05-09T17:54:38.787Z,7.50
2018-05-09T17:57:09.191Z,12.40
2018-05-09T17:59:40.118Z,22.40
2018-05-09T18:02:11.103Z,10.27
2018-05-09T18:04:41.624Z,46.43
2018-05-09T18:07:11.897Z,57.83
2018-05-09T18:09:42.093Z,29.67
2018-05-09T18:12:12.546Z,11.10
2018-05-09T18:14:42.748Z,37.83
2018-05-09T18:17:13.221Z,33.50
2018-05-09T18:19:43.644Z,29.53
2018-05-09T18:22:14.512Z,20.20
2018-05-09T18:24:45.678Z,31.90
2018-05-09T18:27:16.084Z,9.53
2018-05-09T18:29:46.935Z,12.77
2018-05-09T18:32:17.017Z,12.67
2018-05-09T18:34:47.113Z,9.53
2018-05-09T18:37:18.104Z,9.53
2018-05-09T18:39:49.031Z,9.47
2018-05-09T18:42:20.198Z,9.57
2018-05-09T18:44:50.583Z,8.17
2018-05-09T18:47:21.431Z,10.10
2018-05-09T18:49:51.529Z,10.97
2018-05-09T18:52:22.651Z,8.63
2018-05-09T18:54:53.616Z,8.30
2018-05-09T18:57:23.787Z,6.33
2018-05-09T18:59:54.303Z,9.27
2018-05-09T19:02:24.408Z,6.60
2018-05-09T19:04:54.517Z,9.40
2018-05-09T19:07:24.685Z,10.07
2018-05-09T19:09:55.161Z,7.60
2018-05-09T19:12:25.328Z,5.33
2018-05-09T19:14:55.445Z,11.03
2018-05-09T19:17:25.617Z,7.10
2018-05-09T19:19:56.145Z,7.30
2018-05-09T19:22:26.370Z,7.73
2018-05-09T19:24:56.425Z,8.97
2018-05-09T19:27:26.577Z,9.03
2018-05-09T19:29:57.056Z,5.80
2018-05-09T19:32:27.265Z,11.10
2018-05-09T19:34:57.415Z,14.23
2018-05-09T19:37:27.775Z,8.97
2018-05-09T19:39:59.009Z,7.20
2018-05-09T19:42:30.250Z,10.80
2018-05-09T19:45:00.462Z,10.13
2018-05-09T19:47:30.829Z,13.47
2018-05-09T19:50:01.225Z,12.60
2018-05-09T19:52:31.313Z,8.70
2018-05-09T19:55:02.819Z,7.37
2018-05-09T19:57:32.950Z,6.57
2018-05-09T20:00:03.481Z,10.87
2018-05-09T20:02:34.046Z,7.00
2018-05-09T20:05:05.065Z,8.63
2018-05-09T20:07:35.202Z,9.13
2018-05-09T20:10:06.477Z,11.97
2018-05-09T20:12:37.315Z,9.60
2018-05-09T20:15:07.478Z,9.83
2018-05-09T20:17:37.620Z,10.87
2018-05-09T20:20:08.888Z,6.47
2018-05-09T20:22:39.149Z,8.97
2018-05-09T20:25:10.075Z,8.73
2018-05-09T20:27:40.502Z,8.93
2018-05-09T20:30:14.706Z,10.03
2018-05-09T20:32:44.883Z,11.50
2018-05-09T20:35:16.089Z,5.77
2018-05-09T20:37:46.182Z,9.40
2018-05-09T20:40:16.235Z,9.43
2018-05-09T20:42:46.755Z,8.03
2018-05-09T20:45:16.974Z,10.60
2018-05-09T20:47:47.073Z,10.10
2018-05-09T20:50:17.479Z,10.53
2018-05-09T20:52:47.555Z,7.83
2018-05-09T20:55:26.654Z,12.03
2018-05-09T20:57:56.852Z,10.33
2018-05-09T21:00:26.933Z,9.60
2018-05-09T21:02:57.863Z,7.17
2018-05-09T21:05:29.086Z,8.83
2018-05-09T21:07:59.470Z,7.07
2018-05-09T21:10:29.625Z,8.27
2018-05-09T21:12:59.866Z,10.90
2018-05-09T21:15:30.476Z,7.83
2018-05-09T21:18:00.678Z,9.10
2018-05-09T21:20:30.861Z,10.17
2018-05-09T21:23:01.962Z,7.23
2018-05-09T21:25:32.273Z,8.73
2018-05-09T21:28:02.604Z,5.93
2018-05-09T21:30:33.060Z,7.67
2018-05-09T21:33:03.157Z,6.77
2018-05-09T21:35:33.500Z,6.57
2018-05-09T21:38:03.858Z,8.10
2018-05-09T21:40:34.670Z,8.43
2018-05-09T21:43:05.020Z,5.23
2018-05-09T21:45:35.088Z,6.00
2018-05-09T21:48:06.229Z,8.67
2018-05-09T21:50:36.564Z,6.50
2018-05-09T21:53:06.666Z,6.37
2018-05-09T21:55:37.149Z,7.37
2018-05-09T21:58:08.306Z,8.07
2018-05-09T22:00:38.395Z,6.47
2018-05-09T22:03:08.449Z,5.83
2018-05-09T22:05:38.756Z,11.10
2018-05-09T22:08:09.671Z,7.43
2018-05-09T22:10:39.996Z,6.03
2018-05-09T22:13:10.271Z,7.23
2018-05-09T22:15:40.672Z,5.23
2018-05-09T22:18:11.050Z,7.53
2018-05-09T22:20:41.889Z,5.17
2018-05-09T22:23:12.988Z,5.07
2018-05-09T22:25:43.370Z,7.70
2018-05-09T22:28:13.488Z,5.53
2018-05-09T22:30:43.547Z,6.87
2018-05-09T22:33:13.855Z,6.63
2018-05-09T22:35:44.219Z,6.70
2018-05-09T22:38:14.268Z,7.60
2018-05-09T22:40:44.625Z,5.57
2018-05-09T22:43:15.510Z,5.50
2018-05-09T22:45:46.386Z,8.87
2018-05-09T22:48:16.467Z,6.63
2018-05-09T22:50:46.669Z,5.27
2018-05-09T22:53:16.992Z,5.50
2018-05-09T22:55:47.091Z,6.50
2018-05-09T22:58:17.448Z,6.90
2018-05-09T23:00:47.913Z,6.27
2018-05-09T23:03:18.368Z,5.70
2018-05-09T23:05:48.416Z,5.40
2018-05-09T23:08:18.736Z,7.20
2018-05-09T23:10:49.171Z,6.57
2018-05-09T23:13:20.651Z,6.93
2018-05-09T23:15:50.772Z,5.70
2018-05-09T23:18:20.840Z,6.40
2018-05-09T23:20:51.616Z,5.30
2018-05-09T23:23:21.660Z,5.37
2018-05-09T23:25:51.831Z,5.73
2018-05-09T23:28:22.370Z,7.27
2018-05-09T23:30:53.057Z,6.90
2018-05-09T23:33:23.165Z,5.27
2018-05-09T23:35:53.536Z,7.77
2018-05-09T23:38:23.675Z,7.43
2018-05-09T23:40:54.496Z,9.57
2018-05-09T23:43:24.992Z,5.60
2018-05-09T23:45:55.177Z,6.87
2018-05-09T23:48:25.592Z,7.43
2018-05-09T23:50:56.378Z,6.90
2018-05-09T23:53:26.830Z,5.70
2018-05-09T23:55:58.050Z,5.60
2018-05-09T23:58:28.120Z,6.90
